createdAt,value
2022-11-24T00:00:01.011Z,2.7
2022-11-24T00:03:01.334Z,2.7
2022-11-24T00:06:00.920Z,2.7
2022-11-24T00:09:00.846Z,2.7
2022-11-24T00:12:00.874Z,2.7
2022-11-24T00:15:00.798Z,2.7
2022-11-24T00:18:00.870Z,2.7
2022-11-24T00:21:00.945Z,2.7
2022-11-24T00:24:00.935Z,2.7
2022-11-24T00:27:00.849Z,2.7
2022-11-24T00:30:00.940Z,2.8
2022-11-24T00:33:00.846Z,2.8
2022-11-24T00:36:01.000Z,2.8
2022-11-24T00:39:00.936Z,2.8
2022-11-24T00:42:00.892Z,2.8
2022-11-24T00:45:13.113Z,2.9
2022-11-24T00:48:00.879Z,2.9
2022-11-24T00:51:00.897Z,2.9
2022-11-24T00:54:00.898Z,2.9
2022-11-24T00:57:00.861Z,2.9
2022-11-24T01:00:00.893Z,2.9
2022-11-24T01:03:01.121Z,2.9
2022-11-24T01:06:00.854Z,2.9
2022-11-24T01:09:00.856Z,3
2022-11-24T01:12:00.901Z,3
2022-11-24T01:15:00.857Z,3
2022-11-24T01:18:00.920Z,3
2022-11-24T01:21:03.676Z,3
2022-11-24T01:24:00.900Z,3
2022-11-24T01:27:00.823Z,3
2022-11-24T01:30:00.839Z,3
2022-11-24T01:33:00.869Z,3
2022-11-24T01:36:00.944Z,3.1
2022-11-24T01:39:00.902Z,3.1
2022-11-24T01:42:00.902Z,3.1
2022-11-24T01:45:00.841Z,3.1
2022-11-24T01:48:00.882Z,3.1
2022-11-24T01:51:00.824Z,3.1
2022-11-24T01:54:00.897Z,3.1
2022-11-24T01:57:00.959Z,3.1
2022-11-24T02:00:00.927Z,3.1
2022-11-24T02:03:00.996Z,3.1
2022-11-24T02:06:00.876Z,3.1
2022-11-24T02:09:00.896Z,3.1
2022-11-24T02:12:00.887Z,3.1
2022-11-24T02:15:00.848Z,3.1
2022-11-24T02:18:00.941Z,3.1
2022-11-24T02:21:00.904Z,3.3
2022-11-24T02:24:00.845Z,3.3
2022-11-24T02:27:00.864Z,3.3
2022-11-24T02:30:00.859Z,3.3
2022-11-24T02:33:00.913Z,3.3
2022-11-24T02:36:00.894Z,3.3
2022-11-24T02:39:00.808Z,3.3
2022-11-24T02:42:00.887Z,3.4
2022-11-24T02:45:00.916Z,3.4
2022-11-24T02:48:00.955Z,3.4
2022-11-24T02:51:00.834Z,3.4
2022-11-24T02:54:00.929Z,3.4
2022-11-24T02:57:00.862Z,3.4
2022-11-24T03:00:00.903Z,3.4
2022-11-24T03:03:01.083Z,3.4
2022-11-24T03:06:01.022Z,3.4
2022-11-24T03:09:00.887Z,3.4
2022-11-24T03:12:01.207Z,3.4
2022-11-24T03:15:00.976Z,3.4
2022-11-24T03:18:00.864Z,3.4
2022-11-24T03:21:00.859Z,3.4
2022-11-24T03:24:00.897Z,3.4
2022-11-24T03:27:00.884Z,3.4
2022-11-24T03:30:00.933Z,3.4
2022-11-24T03:33:00.823Z,3.4
2022-11-24T03:36:00.877Z,3.4
2022-11-24T03:39:00.868Z,3.6
2022-11-24T03:42:00.833Z,3.6
2022-11-24T03:45:38.446Z,3.6
2022-11-24T03:48:00.846Z,3.6
2022-11-24T03:51:00.901Z,3.6
2022-11-24T03:54:00.842Z,3.6
2022-11-24T03:57:00.821Z,3.6
2022-11-24T04:00:00.834Z,3.6
2022-11-24T04:03:00.992Z,3.6
2022-11-24T04:06:00.950Z,3.6
2022-11-24T04:09:00.816Z,3.6
2022-11-24T04:12:00.866Z,3.6
2022-11-24T04:15:00.807Z,3.6
2022-11-24T04:18:00.839Z,3.6
2022-11-24T04:21:00.871Z,3.7
2022-11-24T04:24:00.955Z,3.7
2022-11-24T04:27:00.831Z,3.7
2022-11-24T04:30:00.912Z,3.7
2022-11-24T04:33:00.813Z,3.7
2022-11-24T04:36:00.820Z,3.8
2022-11-24T04:39:24.591Z,3.8
2022-11-24T04:42:00.825Z,3.8
2022-11-24T04:45:00.854Z,3.8
2022-11-24T04:48:00.800Z,3.8
2022-11-24T04:51:00.903Z,3.8
2022-11-24T04:54:00.854Z,3.8
2022-11-24T04:57:00.793Z,3.8
2022-11-24T05:00:00.936Z,3.8
2022-11-24T05:03:00.984Z,3.8
2022-11-24T05:06:00.918Z,3.8
2022-11-24T05:09:00.717Z,3.8
2022-11-24T05:12:00.751Z,3.8
2022-11-24T05:15:00.712Z,3.9
2022-11-24T05:18:00.736Z,3.9
2022-11-24T05:21:00.738Z,3.9
2022-11-24T05:24:00.766Z,3.9
2022-11-24T05:27:00.818Z,3.9
2022-11-24T05:30:00.749Z,3.9
2022-11-24T05:33:00.753Z,3.9
2022-11-24T05:36:00.772Z,3.9
2022-11-24T05:39:00.869Z,3.9
2022-11-24T05:42:00.709Z,3.9
2022-11-24T05:45:00.823Z,3.9
2022-11-24T05:48:00.700Z,3.9
2022-11-24T05:51:06.511Z,3.9
2022-11-24T05:54:00.787Z,3.9
2022-11-24T05:57:00.706Z,3.9
2022-11-24T06:00:00.809Z,3.9
2022-11-24T06:03:01.039Z,3.9
2022-11-24T06:06:00.789Z,3.9
2022-11-24T06:09:00.755Z,3.9
2022-11-24T06:12:00.795Z,3.9
2022-11-24T06:15:00.808Z,3.7
2022-11-24T06:18:00.775Z,3.7
2022-11-24T06:21:11.720Z,3.7
2022-11-24T06:24:00.783Z,3.6
2022-11-24T06:27:00.689Z,3.6
2022-11-24T06:30:00.768Z,3.6
2022-11-24T06:33:00.788Z,3.6
2022-11-24T06:36:00.782Z,3.6
2022-11-24T06:39:00.764Z,3.6
2022-11-24T06:42:00.687Z,3.6
2022-11-24T06:45:00.736Z,3.6
2022-11-24T06:48:00.743Z,3.6
2022-11-24T06:51:00.733Z,3.6
2022-11-24T06:54:00.798Z,3.6
2022-11-24T06:57:01.458Z,3.4
2022-11-24T07:00:00.863Z,3.4
2022-11-24T07:03:00.906Z,3.4
2022-11-24T07:06:00.982Z,3.4
2022-11-24T07:09:00.805Z,3.4
2022-11-24T07:12:00.803Z,3.4
2022-11-24T07:15:00.768Z,3.4
2022-11-24T07:18:00.864Z,3.3
2022-11-24T07:21:00.814Z,3.3
2022-11-24T07:24:00.832Z,3.4
2022-11-24T07:27:00.762Z,3.4
2022-11-24T07:30:00.831Z,3.4
2022-11-24T07:33:00.767Z,3.4
2022-11-24T07:36:00.755Z,3.4
2022-11-24T07:39:00.907Z,3.4
2022-11-24T07:42:00.844Z,3.4
2022-11-24T07:45:00.867Z,3.4
2022-11-24T07:48:00.767Z,3.4
2022-11-24T07:51:00.826Z,3.4
2022-11-24T07:54:00.869Z,3.4
2022-11-24T07:57:00.777Z,3.4
2022-11-24T08:00:00.850Z,3.4
2022-11-24T08:03:00.834Z,3.4
2022-11-24T08:06:27.636Z,3.4
2022-11-24T08:09:00.823Z,3.4
2022-11-24T08:12:01.030Z,3.7
2022-11-24T08:15:00.772Z,3.7
2022-11-24T08:18:00.792Z,3.7
2022-11-24T08:21:00.792Z,3.7
2022-11-24T08:24:00.758Z,3.7
2022-11-24T08:27:00.828Z,3.7
2022-11-24T08:30:00.917Z,3.7
2022-11-24T08:33:00.791Z,3.7
2022-11-24T08:36:00.846Z,4
2022-11-24T08:39:00.807Z,4
2022-11-24T08:42:00.785Z,4
2022-11-24T08:45:20.721Z,4
2022-11-24T08:48:00.840Z,4
2022-11-24T08:51:00.777Z,4
2022-11-24T08:54:00.809Z,4
2022-11-24T08:57:00.765Z,4
2022-11-24T09:00:00.873Z,4
2022-11-24T09:03:00.767Z,4.5
2022-11-24T09:06:00.817Z,4.5
2022-11-24T09:09:00.762Z,4.5
2022-11-24T09:12:00.873Z,4.5
2022-11-24T09:15:00.769Z,4.5
2022-11-24T09:18:00.827Z,5
2022-11-24T09:21:00.708Z,5
2022-11-24T09:24:00.848Z,5
2022-11-24T09:27:00.847Z,5
2022-11-24T09:30:00.942Z,5.5
2022-11-24T09:33:00.772Z,5.5
2022-11-24T09:36:00.866Z,5.5
2022-11-24T09:39:01.013Z,6
2022-11-24T09:42:00.919Z,6
2022-11-24T09:45:00.820Z,6
2022-11-24T09:48:00.864Z,6
2022-11-24T09:51:00.911Z,6
2022-11-24T09:54:00.915Z,6.5
2022-11-24T09:57:00.892Z,6.5
2022-11-24T10:00:00.853Z,6.7
2022-11-24T10:03:00.828Z,6.7
2022-11-24T10:06:00.841Z,6.7
2022-11-24T10:09:00.779Z,6.7
2022-11-24T10:12:00.805Z,6.7
2022-11-24T10:15:00.889Z,6.7
2022-11-24T10:18:00.771Z,6.7
2022-11-24T10:21:00.814Z,6.7
2022-11-24T10:24:00.900Z,6.9
2022-11-24T10:27:00.844Z,6.9
2022-11-24T10:30:00.832Z,6.9
2022-11-24T10:33:00.845Z,6.9
2022-11-24T10:36:00.902Z,6.9
2022-11-24T10:39:00.827Z,6.9
2022-11-24T10:42:00.822Z,6.9
2022-11-24T10:45:00.775Z,6.9
2022-11-24T10:48:00.811Z,6.9
2022-11-24T10:51:00.825Z,6.9
2022-11-24T10:54:00.752Z,6.9
2022-11-24T10:57:00.856Z,7.2
2022-11-24T11:00:00.869Z,7.2
2022-11-24T11:03:00.939Z,7.5
2022-11-24T11:06:00.838Z,7.5
2022-11-24T11:09:00.835Z,7.5
2022-11-24T11:12:42.495Z,7.5
2022-11-24T11:15:00.810Z,7.5
2022-11-24T11:18:00.822Z,7.5
2022-11-24T11:21:00.792Z,7.5
2022-11-24T11:24:00.877Z,7.5
2022-11-24T11:27:00.835Z,7.5
2022-11-24T11:36:00.826Z,8
2022-11-24T11:39:00.908Z,8
2022-11-24T11:42:00.783Z,8
2022-11-24T11:45:00.833Z,8
2022-11-24T11:48:00.803Z,8
2022-11-24T11:51:23.839Z,8
2022-11-24T11:54:01.041Z,8.3
2022-11-24T11:57:00.819Z,8.3
2022-11-24T12:00:01.085Z,8.5
2022-11-24T12:03:01.215Z,8.5
2022-11-24T12:06:00.823Z,8.5
2022-11-24T12:09:32.863Z,8.5
2022-11-24T12:12:00.854Z,8.5
2022-11-24T12:15:10.458Z,8.5
2022-11-24T12:18:00.892Z,8.5
2022-11-24T12:21:00.876Z,8.5
2022-11-24T12:24:00.858Z,8.5
2022-11-24T12:27:00.858Z,8.5
2022-11-24T12:30:00.955Z,8.5
2022-11-24T12:33:00.842Z,8.5
2022-11-24T12:36:00.905Z,8.5
2022-11-24T12:39:00.800Z,8.5
2022-11-24T12:42:00.861Z,8.5
2022-11-24T12:45:00.832Z,8.8
2022-11-24T12:48:00.857Z,9
2022-11-24T12:51:00.795Z,9
2022-11-24T12:54:00.847Z,9
2022-11-24T12:57:00.859Z,9
2022-11-24T13:00:01.017Z,9
2022-11-24T13:03:01.165Z,9
2022-11-24T13:06:00.838Z,9
2022-11-24T13:09:00.904Z,9
2022-11-24T13:12:03.838Z,9
2022-11-24T13:15:00.870Z,9
2022-11-24T13:18:12.524Z,9
2022-11-24T13:21:00.925Z,8.9
2022-11-24T13:24:00.825Z,8.9
2022-11-24T13:27:00.815Z,8.9
2022-11-24T13:30:00.873Z,8.9
2022-11-24T13:33:00.814Z,8.9
2022-11-24T13:36:00.899Z,8.9
2022-11-24T13:39:00.768Z,8.9
2022-11-24T13:42:00.830Z,9
2022-11-24T13:45:00.781Z,9
2022-11-24T13:48:00.836Z,9
2022-11-24T13:51:00.807Z,9.1
2022-11-24T13:54:01.005Z,9.1
2022-11-24T13:57:00.798Z,9.1
2022-11-24T14:00:00.985Z,9.1
2022-11-24T14:03:00.948Z,9
2022-11-24T14:06:00.824Z,9
2022-11-24T14:09:00.819Z,9
2022-11-24T14:12:00.844Z,9
2022-11-24T14:15:01.027Z,9
2022-11-24T14:18:00.938Z,9
2022-11-24T14:21:00.812Z,9
2022-11-24T14:24:00.967Z,9
2022-11-24T14:27:00.849Z,8.8
2022-11-24T14:30:00.853Z,8.8
2022-11-24T14:33:00.913Z,8.8
2022-11-24T14:36:00.844Z,8.8
2022-11-24T14:39:00.853Z,8.8
2022-11-24T14:42:00.840Z,8.8
2022-11-24T14:45:00.795Z,8.8
2022-11-24T14:48:00.950Z,8.8
2022-11-24T14:51:00.788Z,8.8
2022-11-24T14:54:00.837Z,8.8
2022-11-24T14:57:00.808Z,8.8
2022-11-24T15:00:00.871Z,8.8
2022-11-24T15:03:00.882Z,8.8
2022-11-24T15:06:00.907Z,8.8
2022-11-24T15:09:00.821Z,8.8
2022-11-24T15:12:00.967Z,8.8
2022-11-24T15:15:00.840Z,8.8
2022-11-24T15:18:00.828Z,8.6
2022-11-24T15:21:00.794Z,8.6
2022-11-24T15:24:00.785Z,8.6
2022-11-24T15:27:00.751Z,8.6
2022-11-24T15:30:00.777Z,8.6
2022-11-24T15:33:00.754Z,8.6
2022-11-24T15:36:00.839Z,8.6
2022-11-24T15:39:00.733Z,8.6
2022-11-24T15:42:00.776Z,8.4
2022-11-24T15:45:00.779Z,8.4
2022-11-24T15:48:00.902Z,8.4
2022-11-24T15:51:00.729Z,8.4
2022-11-24T15:54:01.733Z,8.4
2022-11-24T15:57:00.706Z,8.4
2022-11-24T16:00:00.750Z,8.4
2022-11-24T16:03:45.514Z,8.4
2022-11-24T16:06:01.420Z,8.4
2022-11-24T16:09:00.805Z,8.4
2022-11-24T16:12:00.776Z,8.4
2022-11-24T16:15:00.787Z,8.4
2022-11-24T16:18:00.730Z,8.4
2022-11-24T16:21:00.783Z,8.4
2022-11-24T16:24:00.812Z,7.9
2022-11-24T16:27:00.845Z,7.9
2022-11-24T16:30:00.752Z,7.9
2022-11-24T16:33:00.772Z,7.9
2022-11-24T16:36:00.798Z,7.9
2022-11-24T16:39:00.766Z,7.9
2022-11-24T16:42:00.795Z,7.9
2022-11-24T16:45:00.843Z,7.6
2022-11-24T16:48:00.808Z,7.6
2022-11-24T16:51:00.758Z,7.6
2022-11-24T16:54:00.781Z,7.6
2022-11-24T16:57:00.815Z,7.6
2022-11-24T17:00:00.917Z,7.6
2022-11-24T17:03:00.754Z,7.6
2022-11-24T17:06:00.745Z,7.6
2022-11-24T17:09:00.841Z,7.6
2022-11-24T17:12:00.754Z,7.6
2022-11-24T17:15:32.907Z,7.6
2022-11-24T17:18:25.391Z,7.6
2022-11-24T17:21:09.401Z,7.6
2022-11-24T17:24:00.790Z,7.6
2022-11-24T17:27:00.736Z,7.6
2022-11-24T17:30:00.777Z,7.5
2022-11-24T17:33:00.781Z,7.5
2022-11-24T17:36:00.814Z,7.5
2022-11-24T17:39:01.027Z,7.5
2022-11-24T17:42:00.791Z,7.5
2022-11-24T17:45:00.770Z,7.5
2022-11-24T17:48:00.858Z,7.5
2022-11-24T17:51:00.788Z,7.5
2022-11-24T17:54:24.590Z,7.5
2022-11-24T17:57:00.710Z,7.5
2022-11-24T18:00:00.790Z,7.5
2022-11-24T18:03:00.738Z,7.4
2022-11-24T18:06:00.877Z,7.4
2022-11-24T18:09:00.804Z,7.4
2022-11-24T18:12:00.759Z,7.4
2022-11-24T18:15:00.786Z,7.4
2022-11-24T18:18:00.786Z,7.4
2022-11-24T18:21:00.784Z,7.4
2022-11-24T18:24:00.770Z,7.3
2022-11-24T18:27:00.882Z,7.2
2022-11-24T18:30:00.918Z,7.2
2022-11-24T18:33:00.754Z,7.2
2022-11-24T18:36:00.833Z,7.2
2022-11-24T18:39:00.841Z,7.2
2022-11-24T18:42:00.769Z,7.2
2022-11-24T18:45:00.749Z,7.2
2022-11-24T18:48:00.819Z,7.2
2022-11-24T18:51:00.795Z,7.2
2022-11-24T18:54:00.758Z,7.2
2022-11-24T18:57:03.801Z,7.2
2022-11-24T19:00:00.788Z,7.2
2022-11-24T19:03:00.788Z,7.2
2022-11-24T19:06:00.803Z,7.2
2022-11-24T19:09:00.832Z,7.2
2022-11-24T19:12:01.137Z,7.2
2022-11-24T19:15:00.788Z,7.2
2022-11-24T19:18:00.746Z,7.2
2022-11-24T19:21:00.781Z,7.2
2022-11-24T19:24:05.848Z,7.2
2022-11-24T19:27:00.746Z,7.2
2022-11-24T19:30:00.864Z,7.2
2022-11-24T19:33:00.761Z,7.2
2022-11-24T19:36:00.830Z,7.2
2022-11-24T19:39:00.837Z,7.2
2022-11-24T19:42:00.809Z,7.2
2022-11-24T19:45:00.784Z,7.2
2022-11-24T19:48:00.780Z,7
2022-11-24T19:51:00.767Z,7
2022-11-24T19:54:00.806Z,7
2022-11-24T19:57:00.805Z,7
2022-11-24T20:00:00.762Z,7
2022-11-24T20:03:00.907Z,7
2022-11-24T20:06:00.795Z,7
2022-11-24T20:09:00.828Z,7
2022-11-24T20:12:00.756Z,7
2022-11-24T20:15:00.776Z,7
2022-11-24T20:18:00.745Z,6.5
2022-11-24T20:21:00.803Z,6.5
2022-11-24T20:24:00.792Z,6.5
2022-11-24T20:27:00.819Z,6.5
2022-11-24T20:30:00.893Z,6.5
2022-11-24T20:33:00.794Z,6.5
2022-11-24T20:36:00.810Z,6.5
2022-11-24T20:39:00.697Z,6
2022-11-24T20:42:00.770Z,6
2022-11-24T20:45:00.693Z,6
2022-11-24T20:48:00.829Z,6
2022-11-24T20:51:00.740Z,6
2022-11-24T20:54:00.778Z,6
2022-11-24T20:57:00.788Z,6
2022-11-24T21:00:00.847Z,6
2022-11-24T21:03:00.826Z,5.5
2022-11-24T21:06:00.756Z,5.5
2022-11-24T21:09:04.244Z,5.5
2022-11-24T21:12:00.756Z,5.3
2022-11-24T21:15:00.737Z,5.3
2022-11-24T21:18:00.871Z,5.3
2022-11-24T21:21:00.760Z,5.3
2022-11-24T21:24:00.838Z,5
2022-11-24T21:27:00.766Z,5
2022-11-24T21:30:00.846Z,5
2022-11-24T21:33:00.732Z,5
2022-11-24T21:36:00.811Z,5
2022-11-24T21:39:00.828Z,4.7
2022-11-24T21:42:00.769Z,4.7
2022-11-24T21:45:00.777Z,4.7
2022-11-24T21:48:00.776Z,4.7
2022-11-24T21:51:00.764Z,4.7
2022-11-24T21:54:00.831Z,4.7
2022-11-24T21:57:00.711Z,4.7
2022-11-24T22:00:00.765Z,4.7
2022-11-24T22:03:00.801Z,4.7
2022-11-24T22:06:00.763Z,4.2
2022-11-24T22:09:00.798Z,4.2
2022-11-24T22:12:00.720Z,4.2
2022-11-24T22:15:00.784Z,4.2
2022-11-24T22:18:00.742Z,4.2
2022-11-24T22:21:00.757Z,4.2
2022-11-24T22:24:00.758Z,4.2
2022-11-24T22:27:00.757Z,4.2
2022-11-24T22:30:00.783Z,4.2
2022-11-24T22:33:00.850Z,4.2
2022-11-24T22:36:00.820Z,4.2
2022-11-24T22:39:00.811Z,3.7
2022-11-24T22:42:00.826Z,3.7
2022-11-24T22:45:00.816Z,3.7
2022-11-24T22:48:00.746Z,3.7
2022-11-24T22:51:00.774Z,3.7
2022-11-24T22:54:00.775Z,3.7
2022-11-24T22:57:00.789Z,3.7
2022-11-24T23:00:01.178Z,3.7
2022-11-24T23:03:00.830Z,3.7
2022-11-24T23:06:00.809Z,3.3
2022-11-24T23:09:00.769Z,3.3
2022-11-24T23:12:00.758Z,3.3
2022-11-24T23:15:00.756Z,3.2
2022-11-24T23:18:00.755Z,3.2
2022-11-24T23:21:00.878Z,3.2
2022-11-24T23:24:00.872Z,3.2
2022-11-24T23:27:00.850Z,3.2
2022-11-24T23:30:00.756Z,3.2
2022-11-24T23:33:00.809Z,3.2
2022-11-24T23:36:00.789Z,3.2
2022-11-24T23:39:00.787Z,3.2
2022-11-24T23:42:00.775Z,3.2
2022-11-24T23:45:00.801Z,3.2
2022-11-24T23:48:00.743Z,3.2
2022-11-24T23:51:00.935Z,3.2
2022-11-24T23:57:00.865Z,3.2
